Main page
METAR-TAF:

METAR-TAF

Airports :

Koumac Airport

Koumac, New Caledonia

latitude: 20-34S, longitude: 164-17E, elevation: 23 m

METAR: missing

Time: 22:38 (11:38 UTC)

Forecast

The report was made 6 hours and 38 minutes ago, at 05:00 UTC
Forecast valid from 20 at 06 UTC to 21 at 06 UTC
Wind 15 kt from the South/Southeast
Visibility 10 km or more
Scattered clouds at a height of 5000 ft
Becoming
from 20 at 08 UTC to 20 at 10 UTC
Wind 2 kt from variable directions
Becoming
from 20 at 22 UTC to 20 at 24 UTC
Wind 16 kt from the South/Southeast

TAF: NWWK 200500Z 2006/2106 15015KT 9999 SCT050 BECMG 2008/2010 VRB02KT BECMG 2022/2024 15016KT

Weather observations and forecasts of more than 4000 airports (METAR and TAF reports).

The available stations are represented by yellow and red dots on the map.

Hover mouse over dot to see the name of the station.

Then click to see weather observations and forecasts.

To change the map : click on the green buttons with a black cross to zoom in, on the green button with a dash to zoom out, or on the green arrows for adjacent maps.


METAR-TAF: